createdAt,value
2022-08-01T00:01:57.342Z,100517.97
2022-08-01T00:04:23.834Z,100512.13
2022-08-01T00:06:50.299Z,100523.84
2022-08-01T00:09:23.780Z,100521.13
2022-08-01T00:11:59.458Z,100507.75
2022-08-01T00:14:32.124Z,100521.13
2022-08-01T00:17:03.748Z,100528.19
2022-08-01T00:19:33.630Z,100497.91
2022-08-01T00:22:00.229Z,100518.44
2022-08-01T00:24:26.712Z,100515.75
2022-08-01T00:26:53.225Z,100523.84
2022-08-01T00:30:01.097Z,100522.78
2022-08-01T00:32:06.815Z,100456.19
2022-08-01T00:34:33.691Z,100522.78
2022-08-01T00:37:00.260Z,100528.19
2022-08-01T00:39:26.702Z,100529.88
2022-08-01T00:41:59.625Z,100524.66
2022-08-01T00:44:27.740Z,100520.09
2022-08-01T00:46:54.228Z,100519.09
2022-08-01T00:49:20.936Z,100518.28
2022-08-01T00:51:47.563Z,100518.28
2022-08-01T00:54:16.734Z,100487.97
2022-08-01T00:56:44.459Z,100520.75
2022-08-01T00:59:13.381Z,100525.31
2022-08-01T01:01:41.034Z,100512.78
2022-08-01T01:04:13.127Z,100519.09
2022-08-01T01:06:50.076Z,100508.41
2022-08-01T01:09:33.633Z,100446.13
2022-08-01T01:12:09.507Z,100520.75
2022-08-01T01:14:52.019Z,100511.56
2022-08-01T01:17:41.978Z,100510.09
2022-08-01T01:20:14.351Z,100520.75
2022-08-01T01:23:18.549Z,100521.59
2022-08-01T01:26:19.174Z,100515.38
2022-08-01T01:29:01.368Z,100518.06
2022-08-01T01:31:29.674Z,100526.97
2022-08-01T01:33:58.919Z,100496.31
2022-08-01T01:36:27.507Z,100517.25
2022-08-01T01:38:55.475Z,100509.22
2022-08-01T01:41:23.079Z,100528.84
2022-08-01T01:43:51.608Z,100526.97
2022-08-01T01:46:23.639Z,100494.81
2022-08-01T01:48:51.801Z,100531.53
2022-08-01T01:51:21.906Z,100505.88
2022-08-01T01:53:50.137Z,100505.06
2022-08-01T01:56:18.134Z,100528.00
2022-08-01T01:58:46.632Z,100525.31
2022-08-01T02:01:14.891Z,100523.47
2022-08-01T02:03:44.243Z,100517.25
2022-08-01T02:06:14.366Z,100516.59
2022-08-01T02:08:42.997Z,100524.28
2022-08-01T02:11:20.035Z,100518.91
2022-08-01T02:13:56.726Z,100491.59
2022-08-01T02:16:26.994Z,100516.19
2022-08-01T02:18:54.478Z,100517.25
2022-08-01T02:21:38.856Z,100518.06
2022-08-01T02:24:36.019Z,100520.75
2022-08-01T02:27:07.743Z,100512.78
2022-08-01T02:29:40.738Z,100520.75
2022-08-01T02:32:11.742Z,100521.97
2022-08-01T02:34:39.264Z,100404.34
2022-08-01T02:37:07.593Z,100509.06
2022-08-01T02:39:39.194Z,100520.97
2022-08-01T02:42:08.994Z,100455.09
2022-08-01T02:44:40.631Z,100475.00
2022-08-01T02:47:07.429Z,100537.75
2022-08-01T02:49:42.958Z,100527.91
2022-08-01T02:52:13.964Z,100544.16
2022-08-01T02:54:42.199Z,100530.50
2022-08-01T02:57:13.620Z,100552.41
2022-08-01T02:59:43.625Z,100557.81
2022-08-01T03:02:13.653Z,100546.09
2022-08-01T03:04:41.896Z,100553.47
2022-08-01T03:07:11.012Z,100489.84
2022-08-01T03:09:41.665Z,100527.69
2022-08-01T03:12:12.886Z,100562.53
2022-08-01T03:14:41.920Z,100559.00
2022-08-01T03:17:10.634Z,100557.16
2022-08-01T03:19:39.648Z,100556.38
2022-08-01T03:22:12.213Z,100558.72
2022-08-01T03:24:41.371Z,100560.88
2022-08-01T03:27:09.558Z,100551.53
2022-08-01T03:29:39.982Z,100565.31
2022-08-01T03:32:08.129Z,100570.34
2022-08-01T03:34:34.895Z,100561.97
2022-08-01T03:37:18.438Z,100577.22
2022-08-01T03:39:56.850Z,100579.06
2022-08-01T03:42:29.770Z,100587.16
2022-08-01T03:45:03.707Z,100587.97
2022-08-01T03:47:41.914Z,100583.81
2022-08-01T03:50:12.740Z,100591.50
2022-08-01T03:52:42.680Z,100584.47
2022-08-01T03:55:12.299Z,100465.06
2022-08-01T03:57:40.099Z,100588.81
2022-08-01T04:00:09.724Z,100584.47
2022-08-01T04:02:37.369Z,100589.00
2022-08-01T04:05:05.442Z,100580.50
2022-08-01T04:07:37.039Z,100607.88
2022-08-01T04:10:04.882Z,100605.16
2022-08-01T04:12:31.463Z,100610.56
2022-08-01T04:14:57.944Z,100594.16
2022-08-01T04:17:24.418Z,100592.47
2022-08-01T04:19:50.863Z,100609.06
2022-08-01T04:22:17.691Z,100622.16
2022-08-01T04:24:56.553Z,100624.84
2022-08-01T04:27:50.121Z,100627.53
2022-08-01T04:30:20.987Z,100605.09
2022-08-01T04:32:48.850Z,100605.28
2022-08-01T04:35:23.448Z,100625.88
2022-08-01T04:38:06.312Z,100630.41
2022-08-01T04:40:34.773Z,100630.41
2022-08-01T04:43:01.415Z,100627.06
2022-08-01T04:45:28.807Z,100636.81
2022-08-01T04:47:55.622Z,100634.97
2022-08-01T04:50:22.867Z,100637.81
2022-08-01T04:52:49.437Z,100644.06
2022-08-01T04:55:18.116Z,100617.75
2022-08-01T04:57:47.410Z,100641.38
2022-08-01T05:00:14.949Z,100621.25
2022-08-01T05:02:41.402Z,100644.91
2022-08-01T05:05:08.288Z,100636.16
2022-08-01T05:07:45.126Z,100655.69
2022-08-01T05:10:12.546Z,100645.72
2022-08-01T05:12:41.772Z,100643.03
2022-08-01T05:15:14.761Z,100646.78
2022-08-01T05:17:43.296Z,100637.53
2022-08-01T05:20:11.139Z,100631.31
2022-08-01T05:22:37.597Z,100652.31
2022-08-01T05:25:05.895Z,100645.91
2022-08-01T05:27:32.821Z,100657.53
2022-08-01T05:30:00.382Z,100657.53
2022-08-01T05:32:26.971Z,100660.22
2022-08-01T05:34:53.663Z,100656.69
2022-08-01T05:37:20.179Z,100646.16
2022-08-01T05:39:46.618Z,100652.88
2022-08-01T05:42:13.069Z,100651.00
2022-08-01T05:44:39.563Z,100648.84
2022-08-01T05:47:06.115Z,100656.00
2022-08-01T05:49:32.663Z,100645.13
2022-08-01T05:51:59.300Z,100660.75
2022-08-01T05:54:25.907Z,100640.47
2022-08-01T05:56:52.333Z,100666.63
2022-08-01T05:59:19.049Z,100648.84
2022-08-01T06:01:45.881Z,100663.09
2022-08-01T06:04:12.383Z,100667.66
2022-08-01T06:06:38.834Z,100662.59
2022-08-01T06:09:05.282Z,100672.16
2022-08-01T06:11:31.775Z,100665.94
2022-08-01T06:13:58.215Z,100665.94
2022-08-01T06:16:25.188Z,100664.09
2022-08-01T06:18:56.245Z,100663.25
2022-08-01T06:21:23.244Z,100664.09
2022-08-01T06:23:49.711Z,100664.28
2022-08-01T06:26:19.231Z,100667.66
2022-08-01T06:28:45.813Z,100666.63
2022-08-01T06:31:14.553Z,100647.66
2022-08-01T06:33:41.167Z,100668.22
2022-08-01T06:36:07.745Z,100674.94
2022-08-01T06:38:34.254Z,100667.69
2022-08-01T06:41:00.746Z,100668.56
2022-08-01T06:43:27.309Z,100673.75
2022-08-01T06:45:53.792Z,100677.16
2022-08-01T06:48:20.239Z,100680.09
2022-08-01T06:50:46.701Z,100674.75
2022-08-01T06:53:13.348Z,100686.03
2022-08-01T06:55:39.900Z,100683.88
2022-08-01T06:58:06.412Z,100664.78
2022-08-01T07:00:33.057Z,100676.03
2022-08-01T07:03:00.492Z,100675.03
2022-08-01T07:05:27.067Z,100699.06
2022-08-01T07:07:54.137Z,100701.78
2022-08-01T07:10:20.867Z,100676.41
2022-08-01T07:12:47.335Z,100684.50
2022-08-01T07:15:13.844Z,100694.03
2022-08-01T07:17:41.872Z,100706.84
2022-08-01T07:20:13.986Z,100703.78
2022-08-01T07:22:43.116Z,100697.59
2022-08-01T07:25:10.272Z,100636.50
2022-08-01T07:27:37.389Z,100704.63
2022-08-01T07:30:05.358Z,100711.03
2022-08-01T07:32:32.196Z,100703.78
2022-08-01T07:34:58.659Z,100710.00
2022-08-01T07:37:46.164Z,100711.03
2022-08-01T07:40:13.815Z,100712.69
2022-08-01T07:42:44.217Z,100707.31
2022-08-01T07:45:12.156Z,100699.44
2022-08-01T07:47:38.829Z,100706.31
2022-08-01T07:50:07.282Z,100707.16
2022-08-01T07:52:34.138Z,100708.16
2022-08-01T07:55:00.666Z,100715.22
2022-08-01T07:57:27.195Z,100693.03
2022-08-01T07:59:53.687Z,100687.81
2022-08-01T08:02:20.212Z,100706.66
2022-08-01T08:04:49.042Z,100712.38
2022-08-01T08:07:16.119Z,100723.97
2022-08-01T08:09:42.571Z,100724.81
2022-08-01T08:12:09.706Z,100723.78
2022-08-01T08:14:36.890Z,100708.69
2022-08-01T08:17:03.502Z,100715.75
2022-08-01T08:19:37.511Z,100712.88
2022-08-01T08:22:05.598Z,100710.84
2022-08-01T08:24:32.315Z,100699.25
2022-08-01T08:27:00.667Z,100704.16
2022-08-01T08:29:30.557Z,100721.41
2022-08-01T08:31:58.537Z,100716.84
2022-08-01T08:34:26.318Z,100716.84
2022-08-01T08:36:53.399Z,100724.94
2022-08-01T08:39:20.352Z,100727.47
2022-08-01T08:41:49.180Z,100740.38
2022-08-01T08:44:17.699Z,100732.47
2022-08-01T08:46:46.952Z,100739.06
2022-08-01T08:49:17.451Z,100738.22
2022-08-01T08:51:44.957Z,100743.63
2022-08-01T08:54:14.147Z,100744.44
2022-08-01T08:56:42.712Z,100733.69
2022-08-01T08:59:09.637Z,100752.53
2022-08-01T09:01:36.545Z,100749.81
2022-08-01T09:04:06.199Z,100754.84
2022-08-01T09:06:33.816Z,100761.09
2022-08-01T09:09:00.682Z,100763.59
2022-08-01T09:11:27.448Z,100757.53
2022-08-01T09:14:07.854Z,100754.38
2022-08-01T09:16:35.603Z,100759.94
2022-08-01T09:19:15.966Z,100763.66
2022-08-01T09:21:58.355Z,100763.81
2022-08-01T09:24:30.603Z,100760.63
2022-08-01T09:26:58.691Z,100764.81
2022-08-01T09:29:37.730Z,100763.66
2022-08-01T09:32:07.841Z,100758.28
2022-08-01T09:34:34.730Z,100775.91
2022-08-01T09:37:02.800Z,100769.72
2022-08-01T09:39:31.620Z,100777.94
2022-08-01T09:42:00.435Z,100773.91
2022-08-01T09:44:44.833Z,100798.28
2022-08-01T09:47:23.790Z,100784.69
2022-08-01T09:49:59.185Z,100792.75
2022-08-01T09:52:29.353Z,100789.41
2022-08-01T09:54:57.227Z,100768.09
2022-08-01T09:57:24.298Z,100789.78
2022-08-01T10:00:01.336Z,100791.44
2022-08-01T10:02:35.314Z,100789.78
2022-08-01T10:05:08.169Z,100789.78
2022-08-01T10:07:42.891Z,100787.06
2022-08-01T10:10:16.057Z,100804.88
2022-08-01T10:12:45.917Z,100779.00
2022-08-01T10:15:18.305Z,100803.91
2022-08-01T10:17:54.586Z,100802.03
2022-08-01T10:20:30.094Z,100796.66
2022-08-01T10:23:02.194Z,100778.00
2022-08-01T10:25:42.560Z,100798.69
2022-08-01T10:28:21.538Z,100803.41
2022-08-01T10:30:52.268Z,100797.34
2022-08-01T10:33:51.092Z,100784.38
2022-08-01T10:36:09.823Z,100804.75
2022-08-01T10:38:37.343Z,100802.06
2022-08-01T10:41:06.014Z,100797.50
2022-08-01T10:43:33.318Z,100807.44
2022-08-01T10:46:03.951Z,100803.75
2022-08-01T10:48:42.167Z,100796.50
2022-08-01T10:51:18.193Z,100785.56
2022-08-01T10:53:53.075Z,100794.47
2022-08-01T10:56:27.235Z,100788.75
2022-08-01T10:59:06.352Z,100801.84
2022-08-01T11:01:38.794Z,100758.44
2022-08-01T11:04:16.874Z,100797.47
2022-08-01T11:06:55.879Z,100797.47
2022-08-01T11:09:35.378Z,100798.13
2022-08-01T11:12:13.567Z,100793.75
2022-08-01T11:15:03.150Z,100799.13
2022-08-01T11:17:38.109Z,100802.00
2022-08-01T11:20:08.441Z,100802.34
2022-08-01T11:22:59.606Z,100799.81
2022-08-01T11:26:05.303Z,100772.09
2022-08-01T11:28:32.527Z,100798.97
2022-08-01T11:31:13.741Z,100806.72
2022-08-01T11:33:41.201Z,100805.69
2022-08-01T11:36:16.922Z,100804.72
2022-08-01T11:39:04.675Z,100789.56
2022-08-01T11:41:42.294Z,100802.34
2022-08-01T11:44:17.428Z,100801.28
2022-08-01T11:46:48.350Z,100818.47
2022-08-01T11:49:35.141Z,100810.41
2022-08-01T11:52:08.714Z,100823.69
2022-08-01T11:54:39.784Z,100820.81
2022-08-01T11:57:11.903Z,100820.63
2022-08-01T12:00:02.410Z,100815.25
2022-08-01T12:02:35.028Z,100820.81
2022-08-01T12:05:11.886Z,100824.53
2022-08-01T12:07:42.071Z,100821.84
2022-08-01T12:10:16.556Z,100805.41
2022-08-01T12:13:05.879Z,100816.09
2022-08-01T12:15:35.614Z,100803.31
2022-08-01T12:18:07.952Z,100813.91
2022-08-01T12:20:54.536Z,100818.44
2022-08-01T12:23:22.879Z,100822.81
2022-08-01T12:25:52.831Z,100814.72
2022-08-01T12:28:19.628Z,100817.91
2022-08-01T12:30:49.031Z,100658.25
2022-08-01T12:33:18.847Z,100816.75
2022-08-01T12:35:45.526Z,100816.72
2022-08-01T12:38:20.615Z,100816.72
2022-08-01T12:40:51.514Z,100830.19
2022-08-01T12:43:28.711Z,100833.72
2022-08-01T12:45:58.756Z,100831.19
2022-08-01T12:48:26.481Z,100829.34
2022-08-01T12:50:54.184Z,100827.13
2022-08-01T12:53:21.913Z,100821.41
2022-08-01T12:55:58.807Z,100823.06
2022-08-01T12:58:32.789Z,100839.41
2022-08-01T13:01:08.047Z,100836.72
2022-08-01T13:03:35.235Z,100834.88
2022-08-01T13:06:02.346Z,100798.94
2022-08-01T13:08:34.090Z,100837.72
2022-08-01T13:11:09.990Z,100811.84
2022-08-01T13:13:49.265Z,100822.38
2022-08-01T13:16:49.053Z,100833.00
2022-08-01T13:19:14.826Z,100821.84
2022-08-01T13:21:55.698Z,100828.72
2022-08-01T13:24:29.583Z,100820.31
2022-08-01T13:27:05.071Z,100832.78
2022-08-01T13:29:40.954Z,100830.59
2022-08-01T13:32:28.490Z,100826.88
2022-08-01T13:35:09.524Z,100824.84
2022-08-01T13:37:38.617Z,100818.31
2022-08-01T13:40:06.338Z,100846.72
2022-08-01T13:42:32.969Z,100810.75
2022-08-01T13:44:59.405Z,100835.41
2022-08-01T13:47:31.291Z,100843.13
2022-08-01T13:50:01.592Z,100847.31
2022-08-01T13:52:28.431Z,100847.16
2022-08-01T13:54:54.933Z,100844.09
2022-08-01T13:57:22.707Z,100850.50
2022-08-01T13:59:49.281Z,100851.63
2022-08-01T14:02:15.727Z,100847.44
2022-08-01T14:04:42.210Z,100834.50
2022-08-01T14:07:14.187Z,100832.63
2022-08-01T14:09:45.198Z,100849.25
2022-08-01T14:12:27.895Z,100848.94
2022-08-01T14:14:54.403Z,100859.66
2022-08-01T14:17:20.849Z,100849.72
2022-08-01T14:19:48.562Z,100857.63
2022-08-01T14:22:15.067Z,100870.94
2022-08-01T14:24:41.510Z,100866.38
2022-08-01T14:27:08.271Z,100858.97
2022-08-01T14:30:01.157Z,100866.88
2022-08-01T14:32:24.409Z,100867.72
2022-08-01T14:34:55.755Z,100846.72
2022-08-01T14:37:22.379Z,100866.56
2022-08-01T14:39:55.762Z,100878.13
2022-08-01T14:42:22.219Z,100859.88
2022-08-01T14:44:49.780Z,100881.69
2022-08-01T14:47:21.475Z,100857.63
2022-08-01T14:49:48.808Z,100873.22
2022-08-01T14:52:15.344Z,100840.00
2022-08-01T14:54:41.855Z,100861.81
2022-08-01T14:57:08.326Z,100866.03
2022-08-01T14:59:34.888Z,100882.63
2022-08-01T15:02:01.408Z,100864.84
2022-08-01T15:04:27.916Z,100877.56
2022-08-01T15:06:54.610Z,100881.75
2022-08-01T15:09:21.095Z,100893.03
2022-08-01T15:11:48.107Z,100892.50
2022-08-01T15:14:33.037Z,100888.41
2022-08-01T15:16:59.654Z,100886.00
2022-08-01T15:19:26.134Z,100862.00
2022-08-01T15:21:52.605Z,100885.13
2022-08-01T15:24:19.081Z,100881.75
2022-08-01T15:26:45.519Z,100896.50
2022-08-01T15:29:14.374Z,100892.78
2022-08-01T15:31:40.882Z,100900.69
2022-08-01T15:34:07.448Z,100893.31
2022-08-01T15:36:33.895Z,100905.06
2022-08-01T15:39:00.357Z,100887.09
2022-08-01T15:41:26.834Z,100877.69
2022-08-01T15:43:55.706Z,100882.03
2022-08-01T15:46:22.733Z,100902.56
2022-08-01T15:48:49.229Z,100910.66
2022-08-01T15:51:15.723Z,100896.41
2022-08-01T15:53:43.434Z,100905.25
2022-08-01T15:56:09.915Z,100909.78
2022-08-01T15:58:36.583Z,100895.91
2022-08-01T16:01:03.371Z,100903.16
2022-08-01T16:03:29.861Z,100915.56
2022-08-01T16:05:56.656Z,100917.44
2022-08-01T16:08:23.384Z,100909.34
2022-08-01T16:10:49.954Z,100916.78
2022-08-01T16:13:16.887Z,100919.28
2022-08-01T16:15:43.412Z,100916.78
2022-08-01T16:18:15.969Z,100910.53
2022-08-01T16:20:45.748Z,100914.44
2022-08-01T16:23:14.198Z,100897.00
2022-08-01T16:25:40.835Z,100900.25
2022-08-01T16:28:07.473Z,100926.91
2022-08-01T16:30:34.625Z,100919.00
2022-08-01T16:33:04.951Z,100917.50
2022-08-01T16:35:36.685Z,100912.53
2022-08-01T16:38:04.664Z,100915.69
2022-08-01T16:40:31.291Z,100924.63
2022-08-01T16:43:13.608Z,100897.44
2022-08-01T16:45:42.797Z,100933.91
2022-08-01T16:48:12.089Z,100919.47
2022-08-01T16:50:39.122Z,100929.38
2022-08-01T16:53:05.600Z,100934.56
2022-08-01T16:55:49.418Z,100933.75
2022-08-01T16:58:19.682Z,100939.97
2022-08-01T17:00:56.816Z,100910.91
2022-08-01T17:03:46.950Z,100923.31
2022-08-01T17:06:10.926Z,100816.16
2022-08-01T17:08:37.498Z,100937.09
2022-08-01T17:11:13.526Z,100945.19
2022-08-01T17:13:39.996Z,100936.44
2022-08-01T17:16:07.896Z,100946.41
2022-08-01T17:18:34.727Z,100947.41
2022-08-01T17:21:01.297Z,100934.16
2022-08-01T17:23:27.809Z,100918.53
2022-08-01T17:25:54.291Z,100950.47
2022-08-01T17:28:23.013Z,100945.91
2022-08-01T17:30:49.880Z,100939.25
2022-08-01T17:33:16.355Z,100944.41
2022-08-01T17:35:42.857Z,100929.00
2022-08-01T17:38:09.410Z,100953.69
2022-08-01T17:40:40.538Z,100939.81
2022-08-01T17:43:07.992Z,100930.69
2022-08-01T17:45:38.211Z,100938.25
2022-08-01T17:48:07.068Z,100945.38
2022-08-01T17:50:33.535Z,100936.41
2022-08-01T17:52:59.986Z,100954.06
2022-08-01T17:55:55.249Z,100953.22
2022-08-01T17:58:14.450Z,100952.38
2022-08-01T18:00:41.310Z,100952.75
2022-08-01T18:03:08.405Z,100954.41
2022-08-01T18:05:37.489Z,100942.97
2022-08-01T18:08:06.569Z,100955.25
2022-08-01T18:10:33.161Z,100944.66
2022-08-01T18:12:59.742Z,100962.16
2022-08-01T18:15:27.125Z,100964.88
2022-08-01T18:17:53.575Z,100947.38
2022-08-01T18:20:20.080Z,100954.41
2022-08-01T18:22:46.576Z,100961.50
2022-08-01T18:25:13.174Z,100961.50
2022-08-01T18:28:16.284Z,100963.53
2022-08-01T18:30:27.100Z,100949.56
2022-08-01T18:32:54.766Z,100955.31
2022-08-01T18:35:24.240Z,100975.31
2022-08-01T18:38:09.926Z,100977.19
2022-08-01T18:40:36.470Z,100979.06
2022-08-01T18:43:02.936Z,100980.06
2022-08-01T18:45:29.354Z,100985.81
2022-08-01T18:47:56.624Z,100979.72
2022-08-01T18:50:24.312Z,100969.81
2022-08-01T18:52:51.210Z,100979.91
2022-08-01T18:55:17.733Z,100986.47
2022-08-01T18:57:44.310Z,100981.09
2022-08-01T19:00:11.500Z,100928.19
2022-08-01T19:02:37.976Z,100987.00
2022-08-01T19:05:04.708Z,100998.47
2022-08-01T19:08:03.038Z,101003.03
2022-08-01T19:10:17.817Z,100999.31
2022-08-01T19:12:44.283Z,100990.25
2022-08-01T19:15:12.917Z,100990.25
2022-08-01T19:17:39.899Z,101002.38
2022-08-01T19:20:07.029Z,100999.66
2022-08-01T19:22:34.022Z,100985.38
2022-08-01T19:25:00.471Z,100988.25
2022-08-01T19:27:30.559Z,100991.97
2022-08-01T19:29:58.819Z,100986.91
2022-08-01T19:32:25.567Z,100995.31
2022-08-01T19:35:01.132Z,101013.31
2022-08-01T19:37:30.455Z,101004.41
2022-08-01T19:39:57.709Z,100999.72
2022-08-01T19:42:25.081Z,101011.81
2022-08-01T19:44:52.401Z,101001.75
2022-08-01T19:47:19.574Z,101004.28
2022-08-01T19:49:46.418Z,101012.34
2022-08-01T19:52:15.560Z,101025.09
2022-08-01T19:54:45.461Z,100998.88
2022-08-01T19:57:14.392Z,101031.34
2022-08-01T19:59:41.753Z,100984.63
2022-08-01T20:02:08.249Z,100994.41
2022-08-01T20:04:35.708Z,101016.94
2022-08-01T20:07:03.152Z,100979.94
2022-08-01T20:09:31.379Z,101019.94
2022-08-01T20:11:57.861Z,101021.81
2022-08-01T20:14:25.969Z,101039.78
2022-08-01T20:16:54.311Z,101042.84
2022-08-01T20:19:22.149Z,101055.78
2022-08-01T20:22:10.419Z,101050.22
2022-08-01T20:24:41.312Z,101036.94
2022-08-01T20:27:12.616Z,101060.16
2022-08-01T20:29:40.829Z,101011.41
2022-08-01T20:32:08.363Z,101062.69
2022-08-01T20:34:39.698Z,100965.16
2022-08-01T20:37:13.185Z,101050.25
2022-08-01T20:39:41.394Z,101059.31
2022-08-01T20:42:09.355Z,100981.09
2022-08-01T20:44:36.031Z,101063.03
2022-08-01T20:47:04.953Z,101072.81
2022-08-01T20:49:33.749Z,101071.59
2022-08-01T20:52:00.915Z,101065.75
2022-08-01T20:54:37.998Z,101028.25
2022-08-01T20:57:11.627Z,101076.69
2022-08-01T20:59:56.836Z,101058.88
2022-08-01T21:02:48.888Z,101047.78
2022-08-01T21:05:24.426Z,101050.78
2022-08-01T21:08:02.963Z,101048.47
2022-08-01T21:10:30.766Z,101066.78
2022-08-01T21:13:20.581Z,101067.78
2022-08-01T21:15:57.474Z,101076.03
2022-08-01T21:19:18.717Z,101030.97
2022-08-01T21:21:50.463Z,101045.25
2022-08-01T21:24:18.857Z,101036.88
2022-08-01T21:26:46.446Z,101012.59
2022-08-01T21:29:15.177Z,101047.94
2022-08-01T21:31:42.137Z,101027.44
2022-08-01T21:34:09.127Z,101053.84
2022-08-01T21:36:36.287Z,101062.09
2022-08-01T21:39:05.415Z,101050.47
2022-08-01T21:41:56.387Z,101016.66
2022-08-01T21:44:18.800Z,100994.94
2022-08-01T21:46:48.095Z,101044.59
2022-08-01T21:49:14.680Z,101040.22
2022-08-01T21:51:51.866Z,101046.44
2022-08-01T21:54:24.743Z,101043.91
2022-08-01T21:57:06.309Z,101023.38
2022-08-01T21:59:46.855Z,101045.09
2022-08-01T22:02:39.131Z,100970.75
2022-08-01T22:05:08.678Z,101049.84
2022-08-01T22:07:47.154Z,101038.22
2022-08-01T22:10:17.046Z,100998.53
2022-08-01T22:12:45.041Z,101020.91
2022-08-01T22:15:13.605Z,101048.50
2022-08-01T22:17:41.555Z,101044.94
2022-08-01T22:20:08.972Z,101051.38
2022-08-01T22:22:51.672Z,101026.28
2022-08-01T22:25:20.274Z,101053.38
2022-08-01T22:28:02.892Z,101047.81
2022-08-01T22:30:38.595Z,101065.34
2022-08-01T22:33:07.826Z,100965.41
2022-08-01T22:35:45.051Z,101036.53
2022-08-01T22:38:11.611Z,101062.81
2022-08-01T22:40:44.639Z,101032.84
2022-08-01T22:43:29.323Z,100975.00
2022-08-01T22:46:14.643Z,101001.41
2022-08-01T22:48:51.832Z,101061.63
2022-08-01T22:51:26.479Z,101058.09
2022-08-01T22:53:59.175Z,101065.50
2022-08-01T22:56:25.710Z,101028.66
2022-08-01T22:58:54.198Z,101069.91
2022-08-01T23:01:22.509Z,101049.03
2022-08-01T23:03:50.966Z,101074.56
2022-08-01T23:06:38.945Z,101065.84
2022-08-01T23:09:06.223Z,101046.00
2022-08-01T23:11:34.039Z,101069.53
2022-08-01T23:14:02.741Z,101026.47
2022-08-01T23:16:30.563Z,101059.13
2022-08-01T23:19:00.750Z,100985.41
2022-08-01T23:21:28.946Z,101013.00
2022-08-01T23:23:56.692Z,101055.75
2022-08-01T23:26:23.845Z,101046.84
2022-08-01T23:28:54.279Z,101058.78
2022-08-01T23:31:22.977Z,100992.50
2022-08-01T23:34:07.766Z,101046.31
2022-08-01T23:36:35.078Z,101021.75
2022-08-01T23:39:01.554Z,100988.81
2022-08-01T23:41:28.036Z,101047.50
2022-08-01T23:43:54.517Z,101036.75
2022-08-01T23:46:21.023Z,100995.19
2022-08-01T23:48:47.524Z,101033.22
2022-08-01T23:51:24.232Z,101063.16
2022-08-01T23:53:51.783Z,101042.78
2022-08-01T23:56:20.988Z,101059.94
2022-08-01T23:58:51.953Z,101018.06
